Time;durP1;ratioP1;P1;durP2;ratioP2;P2;SDS_P1;SDS_P2;PMS_P1;PMS_P2;Temp;Humidity;BMP_temperature;BMP_pressure;BME280_temperature;BME280_humidity;BME280_pressure;Samples;Min_cycle;Max_cycle;Signal;HPM_P1;HPM_P2
2022/04/29 00:00:17;;;;;;;6.40;5.13;;;9.80;95.20;;;;;;5086051;28;20498;-71
2022/04/29 00:03:07;;;;;;;6.07;5.47;;;9.80;94.80;;;;;;5089734;28;20442;-72
2022/04/29 00:05:53;;;;;;;11.60;5.70;;;9.70;95.20;;;;;;5086413;28;20814;-70
2022/04/29 00:08:39;;;;;;;7.10;5.57;;;9.70;95.70;;;;;;5091355;28;20501;-70
2022/04/29 00:11:27;;;;;;;6.40;5.30;;;9.70;95.20;;;;;;5090960;28;20943;-70
2022/04/29 00:14:13;;;;;;;7.17;5.47;;;9.70;94.80;;;;;;5093464;28;20466;-71
2022/04/29 00:17:00;;;;;;;9.23;5.73;;;9.80;95.00;;;;;;5093112;28;20961;-70
2022/04/29 00:19:46;;;;;;;6.80;5.37;;;9.80;95.10;;;;;;5090522;28;20510;-71
2022/04/29 00:22:32;;;;;;;8.80;5.10;;;9.60;95.10;;;;;;5093557;28;20408;-71
2022/04/29 00:25:17;;;;;;;7.00;5.43;;;9.60;95.20;;;;;;5093438;28;20449;-70
2022/04/29 00:28:04;;;;;;;6.13;5.23;;;9.40;95.40;;;;;;5091392;28;20459;-71
2022/04/29 00:30:50;;;;;;;6.70;5.70;;;9.50;95.70;;;;;;5094177;28;20407;-72
2022/04/29 00:33:37;;;;;;;6.60;5.23;;;9.60;95.50;;;;;;5093187;28;20795;-71
2022/04/29 00:36:24;;;;;;;9.00;5.60;;;9.50;95.70;;;;;;5093679;28;20980;-71
2022/04/29 00:39:09;;;;;;;7.07;5.63;;;9.50;95.50;;;;;;5087466;28;20466;-70
2022/04/29 00:41:55;;;;;;;9.60;5.77;;;9.40;96.00;;;;;;5091664;28;20448;-72
2022/04/29 00:44:41;;;;;;;8.70;6.10;;;9.30;96.60;;;;;;5092013;28;20489;-71
2022/04/29 00:47:27;;;;;;;7.10;6.27;;;9.20;97.30;;;;;;5088821;28;20504;-71
2022/04/29 00:50:18;;;;;;;8.87;5.70;;;9.20;98.30;;;;;;5093548;28;20454;-71
2022/04/29 00:53:04;;;;;;;5.77;5.17;;;9.30;98.20;;;;;;5092967;28;20428;-71
2022/04/29 00:55:50;;;;;;;5.83;5.20;;;9.40;97.70;;;;;;5092788;28;20515;-70
2022/04/29 00:58:41;;;;;;;9.00;5.87;;;9.40;97.30;;;;;;5089077;28;20443;-70
2022/04/29 01:01:29;;;;;;;11.33;5.60;;;9.20;97.70;;;;;;5092436;28;20419;-72
2022/04/29 01:04:22;;;;;;;10.57;5.80;;;9.20;97.90;;;;;;5088017;28;20431;-70
2022/04/29 01:07:09;;;;;;;7.03;6.33;;;9.20;98.10;;;;;;5092140;28;21012;-72
2022/04/29 01:09:55;;;;;;;7.07;5.83;;;9.20;97.90;;;;;;5089819;28;20590;-71
2022/04/29 01:12:42;;;;;;;6.87;5.50;;;9.40;97.70;;;;;;5092967;28;20819;-71
2022/04/29 01:15:29;;;;;;;7.10;6.00;;;9.40;97.30;;;;;;5092773;28;20416;-71
2022/04/29 01:18:17;;;;;;;5.53;4.93;;;9.40;97.10;;;;;;5085341;28;20571;-72
2022/04/29 01:21:03;;;;;;;6.07;5.30;;;9.40;97.10;;;;;;5093650;28;20421;-71
2022/04/29 01:23:50;;;;;;;6.87;5.27;;;9.30;97.10;;;;;;5091811;28;20423;-70
2022/04/29 01:26:36;;;;;;;6.30;5.70;;;9.20;97.20;;;;;;5092678;28;20452;-72
2022/04/29 01:29:23;;;;;;;7.80;5.90;;;9.10;97.40;;;;;;5088644;28;20448;-73
2022/04/29 01:32:10;;;;;;;7.27;5.63;;;9.00;97.70;;;;;;5087824;28;20562;-71
2022/04/29 01:34:56;;;;;;;7.87;5.97;;;9.00;98.00;;;;;;5090229;28;20714;-70
2022/04/29 01:37:42;;;;;;;6.53;5.67;;;9.00;97.90;;;;;;5087375;28;21059;-71
2022/04/29 01:40:29;;;;;;;5.97;5.37;;;8.90;98.10;;;;;;5091142;28;20456;-71
2022/04/29 01:43:15;;;;;;;6.30;5.53;;;8.90;98.10;;;;;;5092513;28;20960;-72
2022/04/29 01:46:01;;;;;;;6.07;5.47;;;9.00;97.80;;;;;;5086803;28;20428;-73
2022/04/29 01:48:46;;;;;;;8.20;5.87;;;8.90;97.70;;;;;;5087311;28;20587;-72
2022/04/29 01:51:32;;;;;;;7.40;5.80;;;8.80;97.90;;;;;;5092319;28;20478;-71
2022/04/29 01:54:18;;;;;;;7.23;5.67;;;8.80;98.20;;;;;;5090807;28;20420;-71
2022/04/29 01:57:06;;;;;;;8.50;6.00;;;8.80;98.10;;;;;;5085558;28;21016;-71
2022/04/29 01:59:51;;;;;;;7.10;6.00;;;8.90;97.90;;;;;;5090765;28;20964;-72
2022/04/29 02:02:37;;;;;;;6.80;6.07;;;9.00;97.40;;;;;;5090139;28;20423;-72
2022/04/29 02:05:23;;;;;;;7.07;5.40;;;9.00;97.40;;;;;;5091462;28;20439;-71
2022/04/29 02:08:09;;;;;;;6.13;5.53;;;9.00;97.60;;;;;;5082737;28;20463;-70
2022/04/29 02:10:55;;;;;;;6.03;5.43;;;8.90;97.20;;;;;;5088462;28;20931;-72
2022/04/29 02:13:42;;;;;;;6.10;5.23;;;9.00;97.10;;;;;;5092687;28;20483;-72
2022/04/29 02:16:28;;;;;;;8.53;5.20;;;8.80;97.70;;;;;;5088925;28;20449;-71
2022/04/29 02:19:14;;;;;;;7.47;5.63;;;8.60;98.30;;;;;;5089384;28;20773;-72
2022/04/29 02:22:00;;;;;;;7.93;5.43;;;8.50;99.10;;;;;;5091726;28;20505;-72
2022/04/29 02:24:46;;;;;;;5.57;5.07;;;8.50;99.80;;;;;;5090895;28;20448;-71
2022/04/29 02:27:32;;;;;;;8.10;6.17;;;8.40;99.90;;;;;;5087604;28;20616;-72
2022/04/29 02:30:19;;;;;;;7.90;5.90;;;8.30;99.90;;;;;;5088404;28;20885;-71
2022/04/29 02:33:05;;;;;;;11.53;5.63;;;8.40;99.90;;;;;;5091541;28;20411;-71
2022/04/29 02:35:51;;;;;;;7.77;6.30;;;8.30;99.90;;;;;;5090151;28;20448;-73
2022/04/29 02:38:37;;;;;;;8.57;7.10;;;8.20;99.90;;;;;;5089941;28;20412;-71
2022/04/29 02:41:23;;;;;;;7.50;6.23;;;8.10;99.90;;;;;;5090428;28;20435;-72
2022/04/29 02:44:08;;;;;;;9.30;6.50;;;8.10;99.90;;;;;;5091701;28;20466;-72
2022/04/29 02:47:10;;;;;;;9.13;5.90;;;8.20;99.90;;;;;;5081976;28;20484;-71
2022/04/29 02:49:58;;;;;;;6.63;5.67;;;8.30;99.90;;;;;;5091706;28;20604;-73
2022/04/29 02:52:43;;;;;;;7.10;6.13;;;8.40;99.90;;;;;;5086678;28;20606;-72
2022/04/29 02:55:29;;;;;;;10.30;6.60;;;8.70;99.90;;;;;;5090949;28;20514;-72
2022/04/29 02:58:14;;;;;;;6.10;5.50;;;8.70;99.90;;;;;;5086006;28;20489;-71
2022/04/29 03:01:00;;;;;;;10.00;6.17;;;8.80;99.90;;;;;;5089011;28;20422;-71
2022/04/29 03:03:47;;;;;;;20.07;5.53;;;8.70;99.90;;;;;;5091272;28;20791;-75
2022/04/29 03:06:33;;;;;;;9.20;5.57;;;8.70;99.90;;;;;;5079908;28;20479;-74
2022/04/29 03:09:20;;;;;;;5.87;5.27;;;8.70;99.90;;;;;;5088625;28;20479;-71
2022/04/29 03:12:09;;;;;;;5.37;4.87;;;8.60;99.90;;;;;;5088621;28;20512;-71
2022/04/29 03:15:15;;;;;;;5.67;5.10;;;8.40;99.90;;;;;;5088283;28;20432;-71
2022/04/29 03:21:05;;;;;;;8.57;5.43;;;8.20;99.90;;;;;;5090298;28;20427;-72
2022/04/29 03:23:51;;;;;;;7.70;5.87;;;8.20;99.90;;;;;;5088841;28;20599;-72
2022/04/29 03:26:37;;;;;;;9.53;5.90;;;8.10;99.90;;;;;;5083759;28;20611;-71
2022/04/29 03:29:23;;;;;;;7.80;5.80;;;8.00;99.90;;;;;;5088578;28;21056;-71
2022/04/29 03:32:10;;;;;;;6.73;6.13;;;8.00;99.90;;;;;;5090366;28;20456;-71
2022/04/29 03:34:55;;;;;;;13.90;5.77;;;8.00;99.90;;;;;;5089056;28;20399;-72
2022/04/29 03:37:42;;;;;;;6.70;6.00;;;8.00;99.90;;;;;;5086207;28;20499;-71
2022/04/29 03:40:28;;;;;;;10.90;6.80;;;8.00;99.90;;;;;;5090095;28;20456;-72
2022/04/29 03:43:15;;;;;;;6.87;5.83;;;8.10;99.90;;;;;;5086830;28;20426;-72
2022/04/29 03:46:00;;;;;;;5.53;5.03;;;8.30;99.90;;;;;;5083406;28;20439;-73
2022/04/29 03:51:49;;;;;;;7.87;7.07;;;8.40;99.90;;;;;;5085684;28;20507;-71
2022/04/29 03:54:36;;;;;;;7.80;5.60;;;8.50;99.90;;;;;;5089668;28;20452;-72
2022/04/29 03:57:22;;;;;;;5.57;5.00;;;8.40;99.90;;;;;;5086194;28;20993;-72
2022/04/29 04:00:09;;;;;;;6.50;5.60;;;8.40;99.90;;;;;;5084771;28;20968;-73
2022/04/29 04:02:55;;;;;;;7.63;5.70;;;8.40;99.90;;;;;;5090198;28;20419;-72
2022/04/29 04:06:49;;;;;;;5.60;5.07;;;8.50;99.90;;;;;;5079188;28;20456;-72
2022/04/29 04:08:46;;;;;;;7.20;5.77;;;8.50;99.90;;;;;;5090535;28;20462;-71
2022/04/29 04:11:34;;;;;;;5.73;5.17;;;8.40;99.90;;;;;;5085216;28;20971;-72
2022/04/29 04:14:20;;;;;;;6.03;5.10;;;8.20;99.90;;;;;;5090466;28;20904;-72
2022/04/29 04:17:07;;;;;;;8.23;5.67;;;8.20;99.90;;;;;;5086830;28;20960;-74
2022/04/29 04:19:53;;;;;;;8.60;4.93;;;8.00;99.90;;;;;;5090616;28;20406;-71
2022/04/29 04:22:38;;;;;;;7.60;5.10;;;8.10;99.90;;;;;;5088097;28;20436;-71
2022/04/29 04:25:24;;;;;;;6.07;5.03;;;8.20;99.90;;;;;;5076313;28;20464;-73
2022/04/29 04:28:13;;;;;;;6.50;5.50;;;8.30;99.90;;;;;;5086540;28;20466;-73
2022/04/29 04:30:58;;;;;;;5.90;5.30;;;8.40;99.90;;;;;;5089506;28;20549;-71
2022/04/29 04:33:44;;;;;;;7.20;5.77;;;8.20;99.90;;;;;;5089058;28;20482;-71
2022/04/29 04:36:30;;;;;;;6.33;5.57;;;8.20;99.90;;;;;;5078519;28;20472;-71
2022/04/29 04:39:15;;;;;;;6.37;5.30;;;8.20;99.90;;;;;;5084723;28;21039;-71
2022/04/29 04:42:01;;;;;;;6.20;5.40;;;8.20;99.90;;;;;;5083157;28;20484;-71
2022/04/29 04:44:50;;;;;;;6.47;5.80;;;8.10;99.90;;;;;;5086334;28;20434;-72
2022/04/29 04:47:35;;;;;;;6.87;5.77;;;8.10;99.90;;;;;;5089513;28;21065;-71
2022/04/29 04:50:21;;;;;;;6.90;5.40;;;8.10;99.90;;;;;;5088994;28;20956;-71
2022/04/29 04:53:07;;;;;;;6.67;6.00;;;8.30;99.90;;;;;;5093241;28;20781;-71
2022/04/29 04:55:53;;;;;;;6.40;5.23;;;8.40;99.90;;;;;;5088725;28;20466;-72
2022/04/29 04:58:38;;;;;;;6.50;5.80;;;8.50;99.90;;;;;;5093484;28;20455;-71
2022/04/29 05:01:25;;;;;;;6.63;5.17;;;8.60;99.90;;;;;;5087142;28;20468;-72
2022/04/29 05:04:11;;;;;;;6.17;5.57;;;8.50;99.90;;;;;;5085867;28;20424;-72
2022/04/29 05:06:56;;;;;;;8.43;5.20;;;8.70;99.90;;;;;;5091929;28;20503;-74
2022/04/29 05:09:42;;;;;;;6.73;6.00;;;8.80;99.90;;;;;;5092944;28;20514;-74
2022/04/29 05:12:28;;;;;;;9.37;6.77;;;8.90;99.90;;;;;;5094154;28;20411;-74
2022/04/29 05:15:14;;;;;;;8.70;6.27;;;9.00;99.90;;;;;;5088789;28;20448;-74
2022/04/29 05:18:01;;;;;;;8.77;6.83;;;9.20;99.90;;;;;;5092821;28;20399;-74
2022/04/29 05:20:48;;;;;;;9.17;5.83;;;9.30;99.90;;;;;;5092031;28;20452;-73
2022/04/29 05:23:36;;;;;;;8.80;5.03;;;9.40;99.90;;;;;;5091819;28;20446;-73
2022/04/29 05:26:22;;;;;;;7.13;6.37;;;9.50;99.90;;;;;;5092108;28;20483;-75
2022/04/29 05:29:07;;;;;;;6.60;5.90;;;9.60;99.90;;;;;;5091288;28;20458;-74
2022/04/29 05:31:53;;;;;;;7.13;5.40;;;9.80;99.90;;;;;;5092209;28;20415;-75
2022/04/29 05:34:40;;;;;;;6.73;5.87;;;9.90;99.90;;;;;;5088780;28;20531;-74
2022/04/29 05:37:27;;;;;;;9.60;5.33;;;10.10;99.90;;;;;;5091348;28;20463;-74
2022/04/29 05:43:28;;;;;;;6.17;5.10;;;10.30;99.90;;;;;;5022871;28;21129;-74
2022/04/29 05:46:14;;;;;;;10.80;6.40;;;10.50;99.90;;;;;;5089649;28;21010;-74
2022/04/29 05:49:00;;;;;;;7.60;5.90;;;10.60;99.90;;;;;;5091636;28;20512;-74
2022/04/29 05:51:47;;;;;;;7.40;6.07;;;10.60;99.90;;;;;;5090778;28;20795;-74
2022/04/29 05:54:33;;;;;;;7.40;6.00;;;10.70;99.90;;;;;;5088669;28;21059;-75
2022/04/29 05:57:18;;;;;;;6.53;5.67;;;10.70;99.90;;;;;;5090172;28;20440;-74
2022/04/29 06:00:06;;;;;;;6.63;5.80;;;10.80;99.90;;;;;;5093128;28;20450;-73
2022/04/29 06:02:52;;;;;;;6.90;5.27;;;10.90;99.90;;;;;;5091579;28;20695;-75
2022/04/29 06:05:39;;;;;;;9.07;6.20;;;11.00;99.90;;;;;;5086581;28;20445;-74
2022/04/29 06:08:26;;;;;;;7.73;6.60;;;11.20;99.90;;;;;;5092610;28;20409;-75
2022/04/29 06:11:11;;;;;;;7.97;6.50;;;11.30;99.90;;;;;;5090057;28;20415;-75
2022/04/29 06:13:57;;;;;;;7.73;6.33;;;11.40;99.90;;;;;;5086969;28;20898;-74
2022/04/29 06:16:45;;;;;;;7.03;6.37;;;11.50;99.90;;;;;;5092294;28;20650;-75
2022/04/29 06:19:31;;;;;;;7.30;6.20;;;11.70;99.90;;;;;;5084676;28;20523;-74
2022/04/29 06:22:16;;;;;;;7.60;6.20;;;11.80;99.90;;;;;;5092923;28;20404;-74
2022/04/29 06:25:04;;;;;;;8.30;6.17;;;11.90;99.60;;;;;;5087206;28;20448;-75
2022/04/29 06:27:50;;;;;;;6.60;5.50;;;11.90;99.90;;;;;;5091770;28;20442;-74
2022/04/29 06:30:35;;;;;;;6.10;5.37;;;12.00;99.90;;;;;;5089856;28;20447;-75
2022/04/29 06:33:21;;;;;;;8.20;6.00;;;12.00;99.90;;;;;;5087371;28;20441;-75
2022/04/29 06:36:09;;;;;;;7.53;5.20;;;12.10;99.70;;;;;;5086687;28;20440;-75
2022/04/29 06:38:54;;;;;;;9.90;5.67;;;12.20;99.30;;;;;;5091491;28;20471;-74
2022/04/29 06:41:41;;;;;;;6.53;5.43;;;12.30;98.70;;;;;;5090602;28;20813;-74
2022/04/29 06:44:27;;;;;;;6.97;5.50;;;12.30;99.80;;;;;;5084635;28;20459;-75
2022/04/29 06:47:12;;;;;;;10.90;5.40;;;12.40;99.90;;;;;;5090094;28;20816;-75
2022/04/29 06:49:58;;;;;;;6.77;4.83;;;12.30;99.90;;;;;;5087460;28;20608;-74
2022/04/29 06:52:44;;;;;;;5.80;5.00;;;12.40;99.90;;;;;;5088894;28;20814;-74
2022/04/29 06:55:30;;;;;;;10.13;5.50;;;12.40;99.90;;;;;;5090900;28;20466;-73
2022/04/29 06:58:17;;;;;;;10.13;6.30;;;12.50;99.60;;;;;;5088877;28;20437;-74
2022/04/29 07:01:03;;;;;;;19.73;5.43;;;12.50;98.90;;;;;;5089824;28;20433;-75
2022/04/29 07:03:49;;;;;;;9.20;5.63;;;12.50;99.90;;;;;;5086918;28;20420;-74
2022/04/29 07:06:35;;;;;;;9.90;5.93;;;12.50;99.90;;;;;;5086577;28;21050;-75
2022/04/29 07:09:20;;;;;;;7.60;5.57;;;12.50;99.90;;;;;;5091490;28;20472;-74
2022/04/29 07:12:07;;;;;;;18.60;7.20;;;12.50;99.90;;;;;;5084558;28;20429;-74
2022/04/29 07:14:55;;;;;;;7.63;5.27;;;12.60;99.90;;;;;;5086487;28;20416;-74
2022/04/29 07:17:41;;;;;;;21.90;6.50;;;12.70;99.90;;;;;;5090448;28;21040;-75
2022/04/29 07:20:28;;;;;;;18.83;7.17;;;12.80;99.90;;;;;;5089116;28;20806;-74
2022/04/29 07:23:14;;;;;;;11.90;7.63;;;12.90;99.70;;;;;;5088643;28;20441;-74
2022/04/29 07:26:00;;;;;;;14.90;7.10;;;13.00;98.80;;;;;;5084286;28;20558;-75
2022/04/29 07:28:46;;;;;;;11.53;6.30;;;13.20;98.00;;;;;;5090222;28;20401;-74
2022/04/29 07:31:33;;;;;;;19.93;7.00;;;13.50;96.90;;;;;;5090154;28;20933;-73
2022/04/29 07:34:19;;;;;;;9.63;7.33;;;13.70;96.10;;;;;;5088156;28;21213;-75
2022/04/29 07:43:13;;;;;;;7.63;6.03;;;14.40;95.00;;;;;;5081485;28;20445;-74
2022/04/29 07:45:59;;;;;;;8.17;6.07;;;14.50;94.90;;;;;;5087177;28;20454;-74
2022/04/29 07:48:46;;;;;;;11.90;7.57;;;14.70;94.40;;;;;;5090363;28;20453;-75
2022/04/29 07:51:31;;;;;;;13.33;5.67;;;14.80;93.80;;;;;;5086181;28;20725;-73
2022/04/29 07:54:17;;;;;;;6.93;5.67;;;14.90;93.10;;;;;;5083860;28;20413;-74
2022/04/29 07:57:03;;;;;;;12.20;4.80;;;14.90;91.90;;;;;;5086649;28;20832;-74
2022/04/29 07:59:49;;;;;;;8.27;5.30;;;15.00;90.20;;;;;;5089395;28;20409;-74
2022/04/29 08:02:35;;;;;;;6.37;5.20;;;15.10;87.30;;;;;;5085666;28;20509;-74
2022/04/29 08:05:22;;;;;;;7.27;4.47;;;15.30;86.70;;;;;;5088505;28;20431;-74
2022/04/29 08:08:08;;;;;;;11.37;4.30;;;15.40;84.70;;;;;;5086115;28;20499;-74
2022/04/29 08:10:53;;;;;;;9.80;5.97;;;15.60;88.10;;;;;;5090344;28;20604;-75
2022/04/29 08:13:41;;;;;;;7.57;5.77;;;15.60;88.10;;;;;;5085986;28;20445;-74
2022/04/29 08:16:28;;;;;;;8.20;6.07;;;15.70;89.30;;;;;;5087203;28;20445;-74
2022/04/29 08:19:14;;;;;;;7.03;5.30;;;15.80;87.70;;;;;;5088557;28;20420;-74
2022/04/29 08:22:03;;;;;;;7.37;5.60;;;15.80;87.70;;;;;;5080167;28;20432;-75
2022/04/29 08:24:49;;;;;;;10.90;5.90;;;15.90;89.50;;;;;;5089468;28;20786;-73
2022/04/29 08:27:34;;;;;;;9.00;7.03;;;16.00;89.60;;;;;;5089491;28;20419;-74
2022/04/29 08:30:20;;;;;;;7.23;5.50;;;16.10;89.70;;;;;;5087026;28;20469;-74
2022/04/29 08:33:06;;;;;;;6.70;4.70;;;16.10;89.00;;;;;;5087612;28;20771;-73
2022/04/29 08:35:52;;;;;;;8.20;5.37;;;16.20;87.00;;;;;;5095916;28;20571;-74
2022/04/29 08:38:41;;;;;;;5.67;4.93;;;16.30;85.60;;;;;;5095644;28;20445;-74
2022/04/29 08:41:27;;;;;;;8.97;5.00;;;16.40;82.20;;;;;;5092209;28;20492;-74
2022/04/29 08:44:12;;;;;;;5.87;4.30;;;16.40;81.50;;;;;;5093390;28;20445;-74
2022/04/29 08:46:59;;;;;;;6.57;4.57;;;16.50;79.50;;;;;;5095190;28;20416;-74
2022/04/29 08:49:46;;;;;;;6.70;4.30;;;16.50;76.50;;;;;;5094217;28;20600;-74
2022/04/29 08:52:32;;;;;;;7.30;4.90;;;16.60;75.90;;;;;;5087601;28;20516;-74
2022/04/29 08:58:39;;;;;;;8.43;4.70;;;16.60;77.70;;;;;;5092266;28;20430;-74
2022/04/29 09:01:26;;;;;;;7.50;4.40;;;16.70;76.60;;;;;;5086212;28;20441;-71
2022/04/29 09:04:12;;;;;;;8.50;5.73;;;16.80;79.00;;;;;;5085553;28;20420;-74
2022/04/29 09:06:58;;;;;;;7.17;5.33;;;16.80;77.70;;;;;;5091820;28;20869;-73
2022/04/29 09:09:43;;;;;;;8.13;6.03;;;16.90;80.60;;;;;;5089040;28;21036;-74
2022/04/29 09:12:30;;;;;;;7.80;5.53;;;17.00;80.00;;;;;;5086617;28;20971;-74
2022/04/29 09:15:17;;;;;;;7.43;4.67;;;17.20;78.80;;;;;;5089139;28;20457;-74
2022/04/29 09:18:03;;;;;;;8.70;5.17;;;17.30;74.90;;;;;;5088394;28;20424;-74
2022/04/29 09:20:53;;;;;;;7.73;4.00;;;17.50;75.50;;;;;;5087437;28;20929;-73
2022/04/29 09:23:42;;;;;;;5.97;4.77;;;17.60;62.10;;;;;;5089805;28;20445;-71
2022/04/29 09:26:29;;;;;;;10.47;4.57;;;17.70;60.30;;;;;;5091640;28;20865;-74
2022/04/29 09:29:18;;;;;;;9.37;4.40;;;17.80;63.10;;;;;;5088542;28;20448;-75
2022/04/29 09:32:05;;;;;;;8.27;4.43;;;18.10;67.20;;;;;;5086872;28;21035;-74
2022/04/29 09:34:53;;;;;;;4.20;3.77;;;18.30;63.50;;;;;;5092483;28;20497;-75
2022/04/29 09:39:26;;;;;;;8.03;4.27;;;18.50;54.60;;;;;;5089477;28;20463;-74
2022/04/29 09:40:45;;;;;;;5.30;3.60;;;18.70;49.20;;;;;;5088051;28;20555;-75
2022/04/29 09:43:38;;;;;;;6.00;3.93;;;18.80;44.60;;;;;;5088035;28;20450;-75
2022/04/29 09:46:25;;;;;;;6.63;3.90;;;18.90;38.40;;;;;;5087887;28;20469;-75
2022/04/29 09:49:12;;;;;;;3.93;2.90;;;18.90;35.70;;;;;;5091793;28;20461;-74
2022/04/29 09:51:57;;;;;;;4.23;3.43;;;18.90;37.00;;;;;;5084918;28;20466;-75
2022/04/29 09:54:43;;;;;;;3.80;3.43;;;18.80;32.30;;;;;;5087597;28;20468;-74
2022/04/29 09:57:29;;;;;;;6.30;3.10;;;18.80;31.80;;;;;;5088467;28;20540;-75
2022/04/29 10:00:16;;;;;;;3.77;2.97;;;18.80;32.40;;;;;;5089345;28;20421;-75
2022/04/29 10:03:04;;;;;;;3.43;3.10;;;18.80;32.60;;;;;;5086251;28;20521;-75
2022/04/29 10:05:53;;;;;;;3.80;3.00;;;18.80;34.70;;;;;;5091160;28;20464;-74
2022/04/29 10:08:40;;;;;;;3.83;2.80;;;18.80;34.10;;;;;;5085296;28;20446;-73
2022/04/29 10:11:29;;;;;;;8.03;4.40;;;18.90;35.10;;;;;;5085728;28;20469;-73
2022/04/29 10:14:21;;;;;;;6.30;4.27;;;18.90;38.40;;;;;;5088677;28;20438;-74
2022/04/29 10:23:20;;;;;;;6.83;4.53;;;18.80;49.00;;;;;;5087340;28;20877;-74
2022/04/29 10:26:09;;;;;;;7.37;4.10;;;18.90;48.40;;;;;;5087341;28;20428;-76
2022/04/29 10:28:55;;;;;;;6.10;4.60;;;19.00;45.40;;;;;;5086051;28;20464;-75
2022/04/29 10:31:42;;;;;;;8.20;4.37;;;18.90;41.80;;;;;;5085929;28;20519;-74
2022/04/29 10:34:29;;;;;;;6.43;4.60;;;18.70;46.10;;;;;;5091304;28;20523;-75
2022/04/29 10:37:17;;;;;;;7.00;4.93;;;18.60;43.80;;;;;;5090334;28;21009;-74
2022/04/29 10:40:11;;;;;;;6.23;5.60;;;18.60;46.10;;;;;;5086749;28;20454;-75
2022/04/29 10:43:07;;;;;;;5.47;4.53;;;18.50;44.90;;;;;;5090510;28;21001;-75
2022/04/29 10:46:23;;;;;;;6.10;5.50;;;18.40;47.60;;;;;;5089447;28;20595;-75
2022/04/29 10:49:26;;;;;;;8.50;5.33;;;18.60;47.80;;;;;;5085887;28;20799;-75
2022/04/29 10:52:27;;;;;;;6.87;5.80;;;18.70;48.90;;;;;;5091407;28;20407;-74
2022/04/29 10:55:24;;;;;;;6.63;5.40;;;18.70;48.40;;;;;;5092061;28;20425;-75
2022/04/29 10:58:21;;;;;;;7.10;5.90;;;18.50;46.20;;;;;;5092352;28;20442;-74
2022/04/29 11:01:23;;;;;;;8.13;6.20;;;18.50;49.10;;;;;;5091112;28;20433;-75
2022/04/29 11:04:48;;;;;;;8.67;5.97;;;18.30;50.50;;;;;;5091546;28;20788;-75
2022/04/29 11:07:46;;;;;;;7.17;4.67;;;18.10;52.50;;;;;;5100409;22;20498;-77
2022/04/29 11:10:55;;;;;;;6.20;5.60;;;18.00;51.20;;;;;;5086761;28;20471;-78
2022/04/29 11:13:44;;;;;;;6.80;5.53;;;18.00;51.20;;;;;;5088869;28;20446;-77
2022/04/29 11:16:49;;;;;;;7.03;5.70;;;17.90;47.90;;;;;;5089779;28;20834;-77
2022/04/29 11:19:36;;;;;;;6.50;5.30;;;17.80;48.00;;;;;;5065494;28;20453;-76
2022/04/29 11:25:27;;;;;;;9.00;5.53;;;17.90;50.00;;;;;;5076931;28;20525;-76
2022/04/29 11:28:13;;;;;;;9.53;5.87;;;18.30;49.20;;;;;;5074664;28;20466;-75
2022/04/29 11:31:04;;;;;;;6.80;5.67;;;18.70;51.90;;;;;;5075888;28;20478;-77
2022/04/29 11:33:50;;;;;;;6.70;4.90;;;19.00;43.90;;;;;;5075351;28;20451;-78
2022/04/29 11:36:36;;;;;;;9.70;4.73;;;19.30;45.80;;;;;;5076684;28;20620;-78
2022/04/29 11:39:21;;;;;;;6.03;5.20;;;19.50;44.60;;;;;;5069548;28;20661;-77
2022/04/29 11:42:19;;;;;;;4.73;3.80;;;19.70;47.30;;;;;;5078133;28;20440;-76
2022/04/29 11:45:05;;;;;;;7.33;4.93;;;20.00;45.10;;;;;;5078415;28;20445;-76
2022/04/29 11:47:52;;;;;;;7.00;4.77;;;20.20;42.90;;;;;;5072103;28;21176;-76
2022/04/29 11:50:38;;;;;;;6.13;4.80;;;20.00;38.80;;;;;;5078282;28;20473;-77
2022/04/29 11:53:24;;;;;;;4.90;4.20;;;20.10;39.70;;;;;;5069775;28;20412;-78
2022/04/29 11:56:10;;;;;;;7.63;3.87;;;20.00;39.70;;;;;;5072145;28;20453;-77
2022/04/29 11:58:58;;;;;;;5.30;3.60;;;20.30;36.80;;;;;;5070569;28;20524;-78
2022/04/29 12:01:43;;;;;;;7.20;3.33;;;20.60;32.70;;;;;;5075836;28;21059;-77
2022/04/29 12:04:29;;;;;;;5.73;3.97;;;20.80;35.20;;;;;;5079299;28;20920;-78
2022/04/29 12:07:15;;;;;;;6.83;3.43;;;20.90;35.40;;;;;;5080369;28;20578;-77
2022/04/29 12:10:00;;;;;;;4.47;3.40;;;20.90;37.40;;;;;;5073138;28;20522;-78
2022/04/29 12:12:47;;;;;;;3.93;3.40;;;20.90;37.80;;;;;;5079064;28;20431;-78
2022/04/29 12:15:35;;;;;;;4.60;4.10;;;20.80;33.90;;;;;;5077968;28;20505;-78
2022/04/29 12:18:44;;;;;;;5.10;3.40;;;20.70;32.00;;;;;;5082772;28;20879;-78
2022/04/29 12:21:30;;;;;;;4.57;3.00;;;20.60;36.40;;;;;;5076426;28;20589;-77
2022/04/29 12:24:16;;;;;;;7.23;3.30;;;20.50;36.50;;;;;;5080594;28;20576;-78
2022/04/29 12:27:06;;;;;;;11.60;4.37;;;20.40;33.90;;;;;;5080219;28;20512;-79
2022/04/29 12:36:09;;;;;;;7.60;4.57;;;19.70;36.60;;;;;;5031298;28;20864;-78
2022/04/29 12:39:04;;;;;;;9.03;4.10;;;19.60;37.40;;;;;;5071266;28;20469;-77
2022/04/29 12:42:01;;;;;;;5.47;3.97;;;19.50;38.00;;;;;;5075240;28;20424;-77
2022/04/29 12:45:08;;;;;;;3.80;3.27;;;19.70;39.10;;;;;;5076058;28;20434;-77
2022/04/29 12:48:04;;;;;;;5.03;4.13;;;20.00;37.30;;;;;;5081240;28;20458;-77
2022/04/29 12:50:49;;;;;;;7.93;4.30;;;20.10;35.60;;;;;;5080275;28;20469;-75
2022/04/29 12:53:38;;;;;;;5.80;4.40;;;20.10;35.10;;;;;;5073536;28;20453;-76
2022/04/29 12:56:25;;;;;;;6.27;3.57;;;19.90;35.40;;;;;;5092891;28;20396;-75
2022/04/29 12:59:23;;;;;;;6.10;4.40;;;19.90;35.10;;;;;;5071676;28;20527;-76
2022/04/29 13:02:09;;;;;;;6.30;4.20;;;20.00;35.00;;;;;;5077733;28;20393;-76
2022/04/29 13:04:56;;;;;;;5.50;4.70;;;20.10;38.00;;;;;;5086597;28;20575;-76
2022/04/29 13:07:41;;;;;;;6.30;3.53;;;20.20;37.10;;;;;;5066640;28;20596;-74
2022/04/29 13:10:27;;;;;;;5.87;3.10;;;20.30;33.20;;;;;;5069653;28;20482;-76
2022/04/29 13:13:13;;;;;;;4.70;3.67;;;20.40;32.60;;;;;;5067167;28;20487;-76
2022/04/29 13:15:59;;;;;;;4.17;3.50;;;20.50;34.10;;;;;;5073141;28;20467;-75
2022/04/29 13:18:45;;;;;;;5.07;3.47;;;20.70;34.30;;;;;;5067088;28;20441;-76
2022/04/29 13:21:32;;;;;;;4.03;2.97;;;20.90;36.50;;;;;;5076713;28;20450;-76
2022/04/29 13:24:18;;;;;;;4.73;3.53;;;21.10;32.60;;;;;;5068873;28;20566;-77
2022/04/29 13:27:05;;;;;;;3.50;2.73;;;21.30;29.70;;;;;;5070618;28;20467;-77
2022/04/29 13:29:50;;;;;;;6.93;3.30;;;21.30;29.00;;;;;;5071200;28;20454;-76
2022/04/29 13:32:36;;;;;;;5.07;3.10;;;21.20;30.60;;;;;;5060360;28;20485;-76
2022/04/29 13:35:22;;;;;;;5.03;2.73;;;21.10;30.00;;;;;;5075185;28;20964;-76
2022/04/29 13:38:11;;;;;;;3.97;3.20;;;21.00;30.50;;;;;;5066398;28;20608;-76
2022/04/29 13:40:56;;;;;;;4.43;3.57;;;20.90;31.70;;;;;;5066569;28;20642;-76
2022/04/29 13:43:43;;;;;;;6.80;3.27;;;20.80;30.20;;;;;;5071865;28;20785;-76
2022/04/29 13:46:28;;;;;;;3.77;2.87;;;20.70;34.40;;;;;;5069991;28;20577;-76
2022/04/29 13:49:14;;;;;;;9.83;3.60;;;20.70;32.00;;;;;;5069552;28;20532;-77
2022/04/29 13:53:07;;;;;;;3.93;2.70;;;20.70;29.80;;;;;;5070090;28;20575;-76
2022/04/29 13:55:09;;;;;;;5.77;3.07;;;20.90;31.60;;;;;;5068349;28;20475;-76
2022/04/29 13:57:54;;;;;;;4.47;3.67;;;21.20;28.80;;;;;;5066144;28;21957;-76
2022/04/29 14:00:42;;;;;;;4.10;2.87;;;21.60;30.00;;;;;;5068321;28;20801;-76
2022/04/29 14:03:28;;;;;;;5.80;3.63;;;21.90;28.00;;;;;;5073254;28;20450;-76
2022/04/29 14:06:14;;;;;;;5.03;3.23;;;22.10;28.90;;;;;;5063941;28;20438;-75
2022/04/29 14:09:00;;;;;;;5.40;3.20;;;22.10;29.00;;;;;;5063339;28;20442;-76
2022/04/29 14:11:47;;;;;;;3.50;2.70;;;22.10;28.10;;;;;;5063806;28;21046;-76
2022/04/29 14:14:32;;;;;;;3.70;2.60;;;22.00;28.00;;;;;;5070255;28;20571;-76
2022/04/29 14:17:18;;;;;;;5.13;3.17;;;22.00;28.10;;;;;;5068434;28;20465;-76
2022/04/29 14:20:05;;;;;;;6.77;2.90;;;21.80;26.80;;;;;;5074150;28;20533;-76
2022/04/29 14:22:51;;;;;;;7.10;3.47;;;21.70;27.60;;;;;;5073024;28;20986;-77
2022/04/29 14:25:37;;;;;;;8.50;3.10;;;21.60;27.20;;;;;;5076147;28;20532;-75
2022/04/29 14:28:23;;;;;;;9.63;2.67;;;21.50;27.60;;;;;;5072358;28;20456;-77
2022/04/29 14:31:09;;;;;;;6.97;2.63;;;21.40;27.60;;;;;;5068535;28;20481;-74
2022/04/29 14:33:55;;;;;;;6.13;2.80;;;21.20;27.40;;;;;;5070969;28;20490;-76
2022/04/29 14:36:41;;;;;;;5.10;2.73;;;21.10;27.70;;;;;;5061037;28;20481;-76
2022/04/29 14:39:28;;;;;;;4.60;2.90;;;21.10;29.00;;;;;;5074154;28;20927;-77
2022/04/29 14:42:13;;;;;;;3.73;3.17;;;21.10;27.30;;;;;;5074263;28;20445;-77
2022/04/29 14:45:02;;;;;;;4.27;3.20;;;21.10;27.30;;;;;;5070808;28;20535;-75
2022/04/29 14:47:48;;;;;;;9.23;3.00;;;21.10;27.30;;;;;;5069383;28;20479;-77
2022/04/29 14:50:35;;;;;;;5.10;3.37;;;21.10;27.30;;;;;;5069382;28;20505;-77
2022/04/29 14:53:21;;;;;;;3.83;2.60;;;21.00;28.20;;;;;;5071077;28;20825;-77
2022/04/29 14:56:07;;;;;;;5.63;3.10;;;21.00;27.80;;;;;;5060547;28;20439;-75
2022/04/29 14:58:53;;;;;;;11.57;3.70;;;20.90;28.70;;;;;;5068586;28;20617;-75
2022/04/29 15:01:40;;;;;;;8.53;3.00;;;20.80;28.50;;;;;;5053143;28;20470;-75
2022/04/29 15:04:26;;;;;;;16.37;3.70;;;20.60;28.10;;;;;;5060103;28;20506;-75
2022/04/29 15:07:12;;;;;;;5.30;2.70;;;20.60;29.00;;;;;;5066626;28;20474;-74
2022/04/29 15:16:04;;;;;;;3.50;2.73;;;20.40;27.60;;;;;;5064215;28;20441;-75